N1011S KEDJ-KOSU
Flight info
| Callsign | N1011S |
|---|---|
| Flight time | 0h 25m |
| Altitude | 3000 |
| Route | KOLNY |
| Aircraft | C82R/L-VGDW/C |
Departure
| Time | 2026-05-08 19:35 |
|---|---|
| Airport | Bellefontaine Regional Airport (KEDJ) |
Arrival
| Time | 2026-05-08 20:00 |
|---|---|
| Airport | The Ohio State University Airport - Don Scott Field (KOSU) |
| Time | Latitude | Longitude | Altitude | Speed | Heading |
|---|---|---|---|---|---|
| 2026-05-08 19:12 | 40.37057 | -83.81815 | 1118 ft | 0 kts | 357° |
| 2026-05-08 19:29 | 40.37063 | -83.81808 | 1115 ft | 5 kts | 50° |
| 2026-05-08 19:29 | 40.37094 | -83.81830 | 1115 ft | 7 kts | 266° |
| 2026-05-08 19:29 | 40.37121 | -83.81865 | 1113 ft | 6 kts | 13° |
| 2026-05-08 19:30 | 40.37142 | -83.81810 | 1118 ft | 8 kts | 71° |
| 2026-05-08 19:30 | 40.37168 | -83.81720 | 1117 ft | 12 kts | 72° |
| 2026-05-08 19:30 | 40.37199 | -83.81618 | 1120 ft | 12 kts | 75° |
| 2026-05-08 19:30 | 40.37231 | -83.81513 | 1121 ft | 13 kts | 66° |
| 2026-05-08 19:31 | 40.37262 | -83.81405 | 1122 ft | 13 kts | 73° |
| 2026-05-08 19:31 | 40.37294 | -83.81292 | 1121 ft | 13 kts | 68° |
| 2026-05-08 19:31 | 40.37324 | -83.81174 | 1123 ft | 13 kts | 66° |
| 2026-05-08 19:31 | 40.37359 | -83.81071 | 1124 ft | 10 kts | 57° |
| 2026-05-08 19:32 | 40.37386 | -83.81052 | 1126 ft | 2 kts | 344° |
| 2026-05-08 19:32 | 40.37388 | -83.81052 | 1126 ft | 0 kts | 344° |
| 2026-05-08 19:33 | 40.37412 | -83.81063 | 1123 ft | 9 kts | 340° |
| 2026-05-08 19:33 | 40.37461 | -83.81094 | 1127 ft | 6 kts | 310° |
| 2026-05-08 19:33 | 40.37460 | -83.81132 | 1128 ft | 0 kts | 251° |
| 2026-05-08 19:34 | 40.37433 | -83.81220 | 1121 ft | 34 kts | 248° |
| 2026-05-08 19:34 | 40.37309 | -83.81629 | 1281 ft | 56 kts | 246° |
| 2026-05-08 19:34 | 40.37123 | -83.82162 | 1510 ft | 73 kts | 249° |
| 2026-05-08 19:35 | 40.37006 | -83.82866 | 1831 ft | 84 kts | 259° |
| 2026-05-08 19:35 | 40.36971 | -83.83662 | 2106 ft | 90 kts | 266° |
| 2026-05-08 19:35 | 40.36984 | -83.84452 | 2404 ft | 83 kts | 264° |
| 2026-05-08 19:35 | 40.36740 | -83.85061 | 2638 ft | 80 kts | 219° |
| 2026-05-08 19:36 | 40.36162 | -83.85323 | 2776 ft | 91 kts | 206° |
| 2026-05-08 19:36 | 40.35530 | -83.85023 | 2914 ft | 121 kts | 138° |
| 2026-05-08 19:36 | 40.35259 | -83.83905 | 2983 ft | 134 kts | 112° |
| 2026-05-08 19:36 | 40.34983 | -83.82683 | 2993 ft | 144 kts | 114° |
| 2026-05-08 19:37 | 40.34682 | -83.81417 | 2987 ft | 148 kts | 116° |
| 2026-05-08 19:37 | 40.34312 | -83.80127 | 2987 ft | 153 kts | 117° |
| 2026-05-08 19:37 | 40.33929 | -83.78802 | 2988 ft | 157 kts | 117° |
| 2026-05-08 19:37 | 40.33541 | -83.77477 | 2993 ft | 156 kts | 117° |
| 2026-05-08 19:38 | 40.33153 | -83.76144 | 3082 ft | 157 kts | 117° |
| 2026-05-08 19:38 | 40.32769 | -83.74813 | 3079 ft | 158 kts | 117° |
| 2026-05-08 19:38 | 40.32380 | -83.73454 | 3078 ft | 160 kts | 117° |
| 2026-05-08 19:38 | 40.31990 | -83.72083 | 3077 ft | 161 kts | 117° |
| 2026-05-08 19:39 | 40.31603 | -83.70720 | 3068 ft | 159 kts | 117° |
| 2026-05-08 19:39 | 40.31222 | -83.69356 | 3068 ft | 159 kts | 117° |
| 2026-05-08 19:39 | 40.30839 | -83.67987 | 3065 ft | 159 kts | 117° |
| 2026-05-08 19:39 | 40.30458 | -83.66638 | 3061 ft | 159 kts | 118° |
| 2026-05-08 19:40 | 40.30068 | -83.65272 | 3060 ft | 160 kts | 118° |
| 2026-05-08 19:40 | 40.29670 | -83.63899 | 3053 ft | 162 kts | 118° |
| 2026-05-08 19:40 | 40.29268 | -83.62531 | 3056 ft | 162 kts | 118° |
| 2026-05-08 19:40 | 40.28859 | -83.61147 | 3044 ft | 162 kts | 118° |
| 2026-05-08 19:41 | 40.28449 | -83.59778 | 3040 ft | 161 kts | 118° |
| 2026-05-08 19:41 | 40.28041 | -83.58416 | 2983 ft | 160 kts | 118° |
| 2026-05-08 19:41 | 40.27637 | -83.57072 | 2979 ft | 157 kts | 119° |
| 2026-05-08 19:41 | 40.27238 | -83.55754 | 2977 ft | 156 kts | 119° |
| 2026-05-08 19:42 | 40.26833 | -83.54426 | 2978 ft | 156 kts | 119° |
| 2026-05-08 19:42 | 40.26428 | -83.53109 | 2979 ft | 156 kts | 119° |
| 2026-05-08 19:42 | 40.26019 | -83.51787 | 2982 ft | 158 kts | 119° |
| 2026-05-08 19:42 | 40.25836 | -83.50350 | 2966 ft | 168 kts | 91° |
| 2026-05-08 19:43 | 40.25815 | -83.48841 | 2961 ft | 164 kts | 108° |
| 2026-05-08 19:43 | 40.25437 | -83.47458 | 2964 ft | 160 kts | 118° |
| 2026-05-08 19:43 | 40.25038 | -83.46090 | 2969 ft | 161 kts | 116° |
| 2026-05-08 19:43 | 40.24667 | -83.44720 | 2965 ft | 160 kts | 115° |
| 2026-05-08 19:44 | 40.24304 | -83.43343 | 2968 ft | 158 kts | 115° |
| 2026-05-08 19:44 | 40.23947 | -83.41986 | 2961 ft | 158 kts | 115° |
| 2026-05-08 19:44 | 40.23585 | -83.40615 | 2960 ft | 159 kts | 116° |
| 2026-05-08 19:44 | 40.23230 | -83.39274 | 2962 ft | 156 kts | 116° |
| 2026-05-08 19:45 | 40.22875 | -83.37934 | 2959 ft | 154 kts | 116° |
| 2026-05-08 19:45 | 40.22527 | -83.36623 | 2960 ft | 154 kts | 116° |
| 2026-05-08 19:45 | 40.22174 | -83.35296 | 2959 ft | 155 kts | 115° |
| 2026-05-08 19:45 | 40.21821 | -83.33964 | 2955 ft | 155 kts | 116° |
| 2026-05-08 19:46 | 40.21471 | -83.32640 | 2958 ft | 152 kts | 116° |
| 2026-05-08 19:46 | 40.21127 | -83.31345 | 2963 ft | 150 kts | 116° |
| 2026-05-08 19:46 | 40.20449 | -83.28795 | 2967 ft | 146 kts | 116° |
| 2026-05-08 19:47 | 40.20112 | -83.27531 | 2961 ft | 147 kts | 116° |
| 2026-05-08 19:47 | 40.19779 | -83.26282 | 2967 ft | 147 kts | 116° |
| 2026-05-08 19:47 | 40.19435 | -83.24992 | 2967 ft | 150 kts | 116° |
| 2026-05-08 19:47 | 40.19092 | -83.23705 | 2964 ft | 150 kts | 116° |
| 2026-05-08 19:48 | 40.18751 | -83.22419 | 2963 ft | 148 kts | 116° |
| 2026-05-08 19:48 | 40.18416 | -83.21163 | 2963 ft | 147 kts | 116° |
| 2026-05-08 19:48 | 40.18076 | -83.19895 | 2962 ft | 146 kts | 116° |
| 2026-05-08 19:48 | 40.17743 | -83.18645 | 2966 ft | 146 kts | 117° |
| 2026-05-08 19:49 | 40.17414 | -83.17408 | 2968 ft | 142 kts | 116° |
| 2026-05-08 19:49 | 40.17090 | -83.16200 | 2966 ft | 141 kts | 116° |
| 2026-05-08 19:49 | 40.16765 | -83.14983 | 2986 ft | 140 kts | 116° |
| 2026-05-08 19:49 | 40.16445 | -83.13786 | 2992 ft | 141 kts | 117° |
| 2026-05-08 19:50 | 40.16116 | -83.12563 | 2990 ft | 143 kts | 116° |
| 2026-05-08 19:50 | 40.15792 | -83.11348 | 2996 ft | 143 kts | 116° |
| 2026-05-08 19:50 | 40.15460 | -83.10112 | 2993 ft | 143 kts | 116° |
| 2026-05-08 19:50 | 40.15130 | -83.08881 | 2996 ft | 143 kts | 116° |
| 2026-05-08 19:51 | 40.14803 | -83.07661 | 2998 ft | 144 kts | 116° |
| 2026-05-08 19:51 | 40.14469 | -83.06416 | 2997 ft | 146 kts | 116° |
| 2026-05-08 19:51 | 40.14128 | -83.05153 | 3005 ft | 148 kts | 115° |
| 2026-05-08 19:51 | 40.13956 | -83.03838 | 2981 ft | 154 kts | 87° |
| 2026-05-08 19:52 | 40.14140 | -83.02459 | 2991 ft | 152 kts | 83° |
| 2026-05-08 19:52 | 40.14297 | -83.01095 | 2994 ft | 153 kts | 84° |
| 2026-05-08 19:52 | 40.14464 | -82.99730 | 2991 ft | 154 kts | 83° |
| 2026-05-08 19:52 | 40.14626 | -82.98341 | 2994 ft | 154 kts | 84° |
| 2026-05-08 19:53 | 40.14801 | -82.96940 | 2995 ft | 158 kts | 83° |
| 2026-05-08 19:53 | 40.14967 | -82.95529 | 2996 ft | 159 kts | 86° |
| 2026-05-08 19:53 | 40.14611 | -82.94254 | 2972 ft | 147 kts | 145° |
| 2026-05-08 19:53 | 40.13730 | -82.93782 | 2993 ft | 133 kts | 175° |
| 2026-05-08 19:54 | 40.12818 | -82.93455 | 2997 ft | 137 kts | 173° |
| 2026-05-08 19:54 | 40.11893 | -82.93117 | 2955 ft | 141 kts | 173° |
| 2026-05-08 19:54 | 40.10921 | -82.92783 | 2861 ft | 143 kts | 173° |
| 2026-05-08 19:54 | 40.09966 | -82.92590 | 2753 ft | 138 kts | 184° |
| 2026-05-08 19:55 | 40.09023 | -82.92671 | 2550 ft | 130 kts | 202° |
| 2026-05-08 19:55 | 40.08330 | -82.93279 | 2465 ft | 112 kts | 231° |
| 2026-05-08 19:55 | 40.08019 | -82.94092 | 2354 ft | 100 kts | 264° |
| 2026-05-08 19:55 | 40.08123 | -82.94987 | 2273 ft | 98 kts | 275° |
| 2026-05-08 19:56 | 40.08251 | -82.95810 | 2279 ft | 86 kts | 273° |
| 2026-05-08 19:56 | 40.08287 | -82.96561 | 2230 ft | 83 kts | 264° |
| 2026-05-08 19:56 | 40.08210 | -82.97304 | 2118 ft | 84 kts | 256° |
| 2026-05-08 19:56 | 40.08093 | -82.98060 | 2023 ft | 84 kts | 258° |
| 2026-05-08 19:57 | 40.08077 | -82.98834 | 1934 ft | 87 kts | 266° |
| 2026-05-08 19:57 | 40.08083 | -82.99627 | 1862 ft | 90 kts | 265° |
| 2026-05-08 19:57 | 40.08039 | -83.00428 | 1798 ft | 85 kts | 261° |
| 2026-05-08 19:57 | 40.07987 | -83.01171 | 1764 ft | 80 kts | 261° |
| 2026-05-08 19:58 | 40.07994 | -83.01845 | 1660 ft | 70 kts | 263° |
| 2026-05-08 19:58 | 40.07953 | -83.02470 | 1540 ft | 69 kts | 259° |
| 2026-05-08 19:58 | 40.07930 | -83.03101 | 1459 ft | 71 kts | 265° |
| 2026-05-08 19:58 | 40.07902 | -83.03750 | 1343 ft | 71 kts | 258° |
| 2026-05-08 19:59 | 40.07872 | -83.04391 | 1221 ft | 73 kts | 264° |
| 2026-05-08 19:59 | 40.07864 | -83.05000 | 1115 ft | 58 kts | 261° |
| 2026-05-08 19:59 | 40.07840 | -83.05485 | 1047 ft | 52 kts | 261° |
| 2026-05-08 19:59 | 40.07819 | -83.05965 | 966 ft | 50 kts | 257° |
| 2026-05-08 20:00 | 40.07791 | -83.06379 | 908 ft | 43 kts | 257° |
| 2026-05-08 20:00 | 40.07770 | -83.06714 | 895 ft | 26 kts | 263° |
| 2026-05-08 20:00 | 40.07751 | -83.06869 | 897 ft | 9 kts | 211° |
| 2026-05-08 20:00 | 40.07711 | -83.06879 | 898 ft | 6 kts | 182° |
| 2026-05-08 20:01 | 40.07668 | -83.06877 | 899 ft | 6 kts | 179° |
| 2026-05-08 20:01 | 40.07660 | -83.06877 | 899 ft | 0 kts | 176° |
| 2026-05-08 20:01 | 40.07658 | -83.06877 | 899 ft | 2 kts | 175° |
| 2026-05-08 20:01 | 40.07630 | -83.06901 | 900 ft | 5 kts | 258° |
| 2026-05-08 20:02 | 40.07626 | -83.06949 | 901 ft | 6 kts | 265° |
| 2026-05-08 20:02 | 40.07621 | -83.07028 | 902 ft | 11 kts | 262° |
| 2026-05-08 20:02 | 40.07615 | -83.07151 | 901 ft | 15 kts | 270° |
| 2026-05-08 20:02 | 40.07615 | -83.07268 | 902 ft | 11 kts | 269° |
| 2026-05-08 20:03 | 40.07613 | -83.07361 | 904 ft | 9 kts | 268° |
| 2026-05-08 20:03 | 40.07611 | -83.07433 | 905 ft | 7 kts | 268° |
| 2026-05-08 20:03 | 40.07609 | -83.07497 | 906 ft | 7 kts | 268° |
| 2026-05-08 20:03 | 40.07596 | -83.07546 | 906 ft | 6 kts | 176° |
| 2026-05-08 20:04 | 40.07556 | -83.07559 | 905 ft | 6 kts | 253° |
| 2026-05-08 20:04 | 40.07566 | -83.07600 | 905 ft | 4 kts | 266° |
| 2026-05-08 20:04 | 40.07566 | -83.07610 | 905 ft | 0 kts | 267° |